createdAt,value
2018-05-24T08:53:39.329Z,8.90
2018-05-24T08:56:32.885Z,8.67
2018-05-24T09:05:37.084Z,9.30
2018-05-24T09:08:17.885Z,8.07
2018-05-24T09:10:56.205Z,8.07
2018-05-24T09:13:25.375Z,9.20
2018-05-24T09:15:54.602Z,8.20
2018-05-24T09:18:22.910Z,9.33
2018-05-24T09:20:51.182Z,8.70
2018-05-24T09:23:19.504Z,8.60
2018-05-24T09:34:45.382Z,8.23
2018-05-24T09:37:13.648Z,8.77
2018-05-24T09:39:41.931Z,8.00
2018-05-24T09:42:10.288Z,9.33
2018-05-24T09:44:38.561Z,9.03
2018-05-24T09:47:11.246Z,8.73
2018-05-24T09:49:44.537Z,8.47
2018-05-24T09:52:12.910Z,7.53
2018-05-24T09:54:41.311Z,8.27
2018-05-24T09:57:13.909Z,7.73
2018-05-24T09:59:42.537Z,7.50
2018-05-24T10:02:11.092Z,7.33
2018-05-24T10:04:39.798Z,7.77
2018-05-24T10:07:09.290Z,7.37
2018-05-24T10:09:37.561Z,7.70
2018-05-24T10:12:06.837Z,8.73
2018-05-24T10:14:35.114Z,6.63
2018-05-24T10:17:23.659Z,7.90
2018-05-24T10:22:53.191Z,7.53
2018-05-24T10:25:36.562Z,7.83
2018-05-24T10:28:18.144Z,7.30
2018-05-24T10:30:48.188Z,7.57
2018-05-24T10:33:17.528Z,7.53
2018-05-24T10:35:53.246Z,6.83
2018-05-24T10:38:23.355Z,7.00
2018-05-24T10:41:07.250Z,6.67
2018-05-24T10:43:36.583Z,7.27
2018-05-24T10:46:09.314Z,7.50
2018-05-24T10:48:37.646Z,6.93
2018-05-24T10:51:06.223Z,6.63
2018-05-24T10:53:34.468Z,7.00
2018-05-24T10:56:02.886Z,6.67
2018-05-24T10:58:31.089Z,7.03
2018-05-24T11:00:59.457Z,6.70
2018-05-24T11:03:27.807Z,6.73
2018-05-24T11:06:00.319Z,5.70
2018-05-24T11:08:52.674Z,6.90
2018-05-24T11:11:35.429Z,7.30
2018-05-24T11:17:01.831Z,6.60
2018-05-24T11:53:26.998Z,9.63
2018-05-24T12:04:00.975Z,8.10
2018-05-24T13:14:23.291Z,7.03
2018-05-24T13:19:46.953Z,6.03
2018-05-24T13:25:26.755Z,7.50
2018-05-24T13:34:21.667Z,6.20
2018-05-24T13:36:59.362Z,5.70
2018-05-24T13:39:38.272Z,5.87
2018-05-24T13:42:14.176Z,6.17
2018-05-24T13:44:48.246Z,6.33
2018-05-24T13:50:21.169Z,7.40
2018-05-24T13:58:36.170Z,6.70
2018-05-24T14:03:52.435Z,7.33
2018-05-24T14:06:34.287Z,7.13
2018-05-24T14:12:17.624Z,7.20
2018-05-24T14:25:38.336Z,7.00
2018-05-24T14:36:52.048Z,7.33
2018-05-24T14:42:27.459Z,6.70
2018-05-24T14:47:43.214Z,7.03
2018-05-24T14:53:08.120Z,8.27
2018-05-24T15:26:39.979Z,7.37
2018-05-24T15:35:05.410Z,6.03
2018-05-24T15:55:25.298Z,5.97
2018-05-24T15:57:54.848Z,6.13
2018-05-24T16:00:24.405Z,5.70
2018-05-24T16:02:53.648Z,5.70
2018-05-24T16:05:38.684Z,6.97
2018-05-24T16:08:07.062Z,5.73
2018-05-24T16:10:35.905Z,5.90
2018-05-24T16:13:10.948Z,6.57
2018-05-24T16:15:40.391Z,5.50
2018-05-24T16:18:22.780Z,5.87
2018-05-24T16:20:54.023Z,5.43
2018-05-24T16:23:25.996Z,5.33
2018-05-24T16:26:10.055Z,5.57
2018-05-24T16:31:32.216Z,6.17
2018-05-24T16:34:01.577Z,4.07
2018-05-24T16:36:39.917Z,4.97
2018-05-24T16:39:31.670Z,4.57
2018-05-24T16:42:06.645Z,5.43
2018-05-24T16:44:36.537Z,4.83
2018-05-24T16:47:09.198Z,5.30
2018-05-24T16:49:43.621Z,4.43
2018-05-24T16:52:13.874Z,4.40
2018-05-24T16:54:42.936Z,4.53
2018-05-24T16:57:16.627Z,4.70
2018-05-24T16:59:46.864Z,4.30
2018-05-24T17:02:15.388Z,4.80
2018-05-24T17:05:02.705Z,4.87
2018-05-24T17:07:30.983Z,4.23
2018-05-24T17:09:59.355Z,4.77
2018-05-24T17:12:28.815Z,18.03
2018-05-24T17:14:57.693Z,15.60
2018-05-24T17:17:26.046Z,5.03
2018-05-24T17:19:54.467Z,4.23
2018-05-24T17:22:24.069Z,4.67
2018-05-24T17:24:53.665Z,4.60
2018-05-24T17:27:25.877Z,4.90
2018-05-24T17:29:55.032Z,3.73
2018-05-24T17:32:23.850Z,4.43
2018-05-24T17:34:52.815Z,3.87
2018-05-24T17:40:07.080Z,4.33
2018-05-24T17:42:35.442Z,4.10
2018-05-24T17:45:14.174Z,4.17
2018-05-24T17:47:43.740Z,3.80
2018-05-24T17:52:50.193Z,4.13
2018-05-24T17:55:30.409Z,4.20
2018-05-24T17:58:06.492Z,3.93
2018-05-24T18:00:54.978Z,3.73
2018-05-24T18:03:46.425Z,3.70
2018-05-24T18:06:24.026Z,4.93
2018-05-24T18:28:17.217Z,3.93
2018-05-24T18:30:45.561Z,3.77
2018-05-24T18:33:14.817Z,4.20
2018-05-24T18:35:48.378Z,3.83
2018-05-24T18:38:17.229Z,3.77
2018-05-24T18:40:45.961Z,3.80
2018-05-24T18:43:26.092Z,4.40
2018-05-24T18:46:06.016Z,4.27
2018-05-24T18:48:40.656Z,4.43
2018-05-24T18:56:31.933Z,4.03
2018-05-24T18:59:24.460Z,4.87
2018-05-24T19:02:03.518Z,4.40
2018-05-24T19:04:32.887Z,3.80
2018-05-24T19:07:22.952Z,4.00
2018-05-24T19:10:02.567Z,4.10
2018-05-24T19:12:39.853Z,4.07
2018-05-24T19:15:09.248Z,4.83
2018-05-24T19:17:47.732Z,5.30
2018-05-24T19:20:23.199Z,4.90
2018-05-24T19:23:01.463Z,4.37
2018-05-24T19:25:36.897Z,4.27
2018-05-24T19:28:28.264Z,4.50
2018-05-24T19:36:28.823Z,3.80
2018-05-24T19:39:02.252Z,3.87
2018-05-24T19:41:38.600Z,4.20
2018-05-24T19:44:11.237Z,4.13
2018-05-24T19:46:39.660Z,4.27
2018-05-24T19:49:11.575Z,3.80
2018-05-24T19:51:40.512Z,3.80
2018-05-24T19:54:09.592Z,3.53
2018-05-24T19:56:38.828Z,5.20
2018-05-24T19:59:07.427Z,3.50
2018-05-24T20:01:43.459Z,4.17
2018-05-24T20:04:22.377Z,4.00
2018-05-24T20:06:52.200Z,4.10
2018-05-24T20:09:21.342Z,4.17
2018-05-24T20:11:58.288Z,4.40
2018-05-24T20:14:26.747Z,4.53
2018-05-24T20:16:55.050Z,4.13
2018-05-24T20:19:29.196Z,4.23
2018-05-24T20:22:01.055Z,4.40
2018-05-24T20:24:29.651Z,4.70
2018-05-24T20:26:58.049Z,4.13
2018-05-24T20:29:26.425Z,4.20
2018-05-24T20:31:54.731Z,5.33
2018-05-24T20:34:23.005Z,4.10
2018-05-24T20:37:01.069Z,3.90
2018-05-24T20:39:29.334Z,4.80
2018-05-24T20:41:58.628Z,5.13
2018-05-24T20:44:35.932Z,3.80
2018-05-24T20:53:07.408Z,3.83
2018-05-24T20:55:40.433Z,4.73
2018-05-24T20:58:10.471Z,4.20
2018-05-24T21:00:39.449Z,4.00
2018-05-24T21:03:28.554Z,4.63
2018-05-24T21:08:40.808Z,4.60
2018-05-24T21:11:09.053Z,4.00
2018-05-24T21:13:42.225Z,4.20
2018-05-24T21:16:11.670Z,4.33
2018-05-24T21:18:45.626Z,4.33
2018-05-24T21:21:17.228Z,4.00
2018-05-24T21:23:55.852Z,4.00
2018-05-24T21:26:25.641Z,6.50
2018-05-24T21:28:54.098Z,3.80
2018-05-24T21:31:22.654Z,3.97
2018-05-24T21:33:52.123Z,4.10
2018-05-24T21:36:32.202Z,4.10
2018-05-24T21:39:02.351Z,4.30
2018-05-24T21:41:30.858Z,4.40
2018-05-24T21:43:59.303Z,4.40
2018-05-24T21:46:28.331Z,3.90
2018-05-24T21:48:57.489Z,4.80
2018-05-24T21:51:28.290Z,4.13
2018-05-24T21:54:04.132Z,3.90
2018-05-24T21:56:51.214Z,5.07
2018-05-24T22:02:36.644Z,3.93
2018-05-24T22:05:12.284Z,4.60
2018-05-24T22:07:48.626Z,4.37
2018-05-24T22:12:54.757Z,3.83
2018-05-24T22:15:23.020Z,4.27
2018-05-24T22:18:03.353Z,5.67
2018-05-24T22:20:32.774Z,4.47
2018-05-24T22:23:03.136Z,4.50
2018-05-24T22:25:32.628Z,5.13
2018-05-24T22:28:01.187Z,3.77
2018-05-24T22:30:30.438Z,4.33
2018-05-24T22:35:52.118Z,4.07
2018-05-24T22:38:35.532Z,4.10
2018-05-24T22:41:03.818Z,4.20
2018-05-24T22:43:32.116Z,5.20
2018-05-24T22:46:01.463Z,4.53
2018-05-24T22:48:30.937Z,4.50
2018-05-24T22:51:00.794Z,4.40
2018-05-24T22:53:30.499Z,4.60
2018-05-24T22:55:59.895Z,4.37
2018-05-24T22:58:41.441Z,4.10
2018-05-24T23:01:10.758Z,4.33
2018-05-24T23:03:45.399Z,4.50
2018-05-24T23:06:17.612Z,4.23
2018-05-24T23:08:46.759Z,4.13
2018-05-24T23:11:15.093Z,4.60
2018-05-24T23:13:43.403Z,4.30
2018-05-24T23:16:15.972Z,4.50
2018-05-24T23:18:44.272Z,4.57
2018-05-24T23:21:12.656Z,4.87
2018-05-24T23:23:41.040Z,4.40
2018-05-24T23:26:09.410Z,5.13
2018-05-24T23:28:39.642Z,7.07
2018-05-24T23:31:07.913Z,4.77
2018-05-24T23:33:37.217Z,3.70
2018-05-24T23:36:05.485Z,3.90
2018-05-24T23:38:33.798Z,4.10
2018-05-24T23:41:02.138Z,5.10
2018-05-24T23:43:31.211Z,5.20
2018-05-24T23:45:59.517Z,7.17
2018-05-24T23:48:27.878Z,4.13
2018-05-24T23:50:56.290Z,4.87
2018-05-24T23:53:24.616Z,5.20
2018-05-24T23:55:52.938Z,4.53
2018-05-24T23:58:21.391Z,4.20
